Portada
METAR-TAF:

METAR-TAF

Aeropuertos :

Niamey, Níger

Aeropuerto Internacional Diori Hamani

latitud: 13-29N, longitud: 002-10E, altitud: 223 m

Observación

El informe se hizo hace 28 minutos, a las 20:00 UTC
Viento 3 kt del norte
Temperatura 27°C
Humedad 17%
Presión 1012 hPa
Visibilidad: 6000 m

METAR: DRRN 162000Z 01003KT 6000 NSC 27/00 Q1012 NOSIG

Hora: 21:28 (20:28 UTC)

Pronóstico

El informe se hizo hace 3 horas y 28 minutos, a las 17:00 UTC
Pronóstico válido del 16 a las 18 UTC al 17 a las 24 UTC
Viento 8 kt del este
Visibilidad: 6000 m
Temporalmente
del 16 a las 18 UTC al 16 a las 21 UTC
Visibilidad: 4000 m
Polvo extendido
Temporalmente
del 17 a las 06 UTC al 17 a las 09 UTC
Visibilidad: 4000 m
Polvo extendido

TAF: DRRN 161700Z 1618/1724 08008KT 6000 NSC TEMPO 1618/1621 4000 DU TEMPO 1706/1709 4000 DU

Observaciones y pronósticos meteorológicos de más de 4000 aeropuertos (mensajes METAR y TAF).

Los puntos amarillos y rojos representan las estaciones disponibles.

Ponga el ratón en el punto deseado para ver el nombre de la estación.

Haga clic para ver las observaciones y los pronósticos meteorológicos.

Para cambiar el mapa : haga clic en los botones verdes con una cruz de color negro para hacer un zoom, en el botón verde con un guión para alejar o en las flechas verdes para mapas adyacentes.


METAR-TAF: